createdAt,value
2018-12-18T00:01:19.487Z,23.90
2018-12-18T00:03:51.124Z,26.43
2018-12-18T00:06:21.390Z,23.90
2018-12-18T00:08:51.818Z,25.40
2018-12-18T00:11:22.511Z,25.27
2018-12-18T00:13:53.436Z,26.17
2018-12-18T00:16:23.753Z,24.67
2018-12-18T00:18:54.472Z,29.43
2018-12-18T00:21:25.024Z,25.20
2018-12-18T00:23:56.317Z,27.87
2018-12-18T00:26:26.700Z,27.20
2018-12-18T00:28:57.139Z,25.53
2018-12-18T00:31:27.368Z,28.33
2018-12-18T00:33:57.861Z,24.07
2018-12-18T00:36:28.503Z,20.60
2018-12-18T00:38:59.153Z,24.80
2018-12-18T00:41:29.372Z,27.83
2018-12-18T00:44:00.451Z,28.17
2018-12-18T00:46:31.125Z,25.63
2018-12-18T00:49:01.403Z,26.90
2018-12-18T00:51:31.775Z,28.43
2018-12-18T00:54:03.156Z,28.17
2018-12-18T00:56:33.652Z,32.57
2018-12-18T00:59:04.082Z,31.80
2018-12-18T01:01:34.317Z,27.67
2018-12-18T01:04:05.638Z,27.23
2018-12-18T01:06:36.188Z,25.77
2018-12-18T01:09:08.796Z,27.77
2018-12-18T01:11:39.347Z,28.67
2018-12-18T01:14:10.491Z,28.90
2018-12-18T01:16:41.264Z,25.03
2018-12-18T01:19:12.012Z,25.40
2018-12-18T01:21:42.208Z,29.90
2018-12-18T01:24:12.779Z,27.80
2018-12-18T01:26:43.445Z,31.83
2018-12-18T01:29:14.315Z,37.80
2018-12-18T01:31:44.840Z,39.67
2018-12-18T01:34:15.460Z,35.33
2018-12-18T01:36:46.104Z,33.87
2018-12-18T01:39:16.842Z,36.20
2018-12-18T01:41:47.470Z,36.30
2018-12-18T01:44:18.672Z,36.17
2018-12-18T01:46:49.051Z,32.63
2018-12-18T01:49:19.519Z,36.70
2018-12-18T01:51:50.199Z,35.30
2018-12-18T01:54:21.855Z,33.23
2018-12-18T01:56:52.353Z,33.77
2018-12-18T01:59:22.903Z,35.67
2018-12-18T02:01:53.544Z,32.60
2018-12-18T02:04:24.076Z,32.80
2018-12-18T02:06:54.460Z,32.47
2018-12-18T02:09:25.115Z,29.30
2018-12-18T02:11:55.593Z,28.57
2018-12-18T02:14:26.878Z,18.77
2018-12-18T02:16:57.202Z,20.80
2018-12-18T02:19:28.083Z,16.30
2018-12-18T02:21:58.567Z,15.10
2018-12-18T02:24:30.344Z,12.20
2018-12-18T02:27:00.890Z,14.97
2018-12-18T02:29:31.327Z,23.20
2018-12-18T02:32:01.932Z,26.23
2018-12-18T02:34:33.278Z,19.27
2018-12-18T02:37:03.550Z,24.20
2018-12-18T02:39:34.099Z,23.10
2018-12-18T02:42:04.475Z,21.87
2018-12-18T02:44:36.109Z,27.50
2018-12-18T02:47:06.599Z,25.80
2018-12-18T02:49:37.166Z,25.10
2018-12-18T02:52:07.758Z,24.27
2018-12-18T02:54:39.556Z,23.57
2018-12-18T02:57:09.939Z,12.77
2018-12-18T02:59:40.413Z,16.60
2018-12-18T03:02:10.917Z,16.37
2018-12-18T03:04:41.261Z,20.63
2018-12-18T03:07:11.703Z,27.17
2018-12-18T03:09:42.216Z,23.20
2018-12-18T03:12:12.754Z,24.93
2018-12-18T03:14:43.895Z,23.47
2018-12-18T03:17:14.196Z,27.47
2018-12-18T03:19:44.689Z,24.13
2018-12-18T03:22:15.166Z,25.73
2018-12-18T03:24:45.939Z,23.17
2018-12-18T03:27:16.396Z,22.77
2018-12-18T03:29:46.828Z,20.17
2018-12-18T03:32:21.373Z,21.70
2018-12-18T03:34:52.683Z,17.03
2018-12-18T03:37:23.133Z,19.00
2018-12-18T03:39:53.677Z,18.17
2018-12-18T03:42:24.246Z,20.63
2018-12-18T03:44:55.862Z,18.33
2018-12-18T03:47:26.347Z,13.57
2018-12-18T03:49:57.309Z,11.57
2018-12-18T03:52:27.614Z,12.43
2018-12-18T03:54:58.471Z,13.50
2018-12-18T03:57:28.765Z,14.67
2018-12-18T03:59:59.296Z,17.90
2018-12-18T04:02:30.022Z,16.13
2018-12-18T04:05:00.768Z,12.23
2018-12-18T04:07:31.660Z,12.70
2018-12-18T04:10:02.161Z,12.10
2018-12-18T04:12:32.709Z,51.77
2018-12-18T04:15:03.565Z,25.03
2018-12-18T04:17:33.977Z,17.37
2018-12-18T04:20:04.949Z,14.57
2018-12-18T04:22:35.540Z,13.20
2018-12-18T04:25:06.117Z,12.00
2018-12-18T04:27:36.529Z,15.77
2018-12-18T04:30:07.845Z,16.30
2018-12-18T04:32:38.050Z,16.50
2018-12-18T04:35:08.275Z,18.50
2018-12-18T04:37:38.854Z,19.57
2018-12-18T04:40:09.534Z,14.67
2018-12-18T04:42:40.148Z,15.63
2018-12-18T04:45:11.411Z,14.40
2018-12-18T04:47:41.826Z,14.10
2018-12-18T04:50:12.326Z,22.57
2018-12-18T04:52:42.756Z,19.90
2018-12-18T04:55:14.045Z,27.97
2018-12-18T04:57:44.565Z,26.07
2018-12-18T05:00:15.198Z,26.40
2018-12-18T05:02:45.330Z,28.90
2018-12-18T05:05:16.150Z,38.87
2018-12-18T05:07:46.352Z,38.37
2018-12-18T05:10:16.804Z,33.10
2018-12-18T05:12:46.823Z,31.13
2018-12-18T05:15:18.118Z,25.50
2018-12-18T05:17:48.779Z,24.80
2018-12-18T05:20:19.809Z,25.07
2018-12-18T05:22:50.246Z,24.50
2018-12-18T05:25:21.744Z,29.20
2018-12-18T05:27:51.832Z,33.93
2018-12-18T05:30:22.460Z,26.17
2018-12-18T05:32:53.019Z,14.53
2018-12-18T05:35:24.482Z,12.97
2018-12-18T05:37:54.696Z,10.03
2018-12-18T05:40:25.201Z,8.90
2018-12-18T05:42:55.510Z,9.97
2018-12-18T05:45:26.459Z,12.30
2018-12-18T05:47:56.766Z,9.93
2018-12-18T05:50:27.274Z,9.33
2018-12-18T05:52:57.917Z,7.67
2018-12-18T05:55:29.067Z,10.27
2018-12-18T05:57:59.624Z,10.03
2018-12-18T06:00:30.324Z,6.30
2018-12-18T06:03:01.089Z,4.83
2018-12-18T06:05:31.891Z,5.23
2018-12-18T06:08:02.467Z,8.40
2018-12-18T06:10:32.983Z,6.60
2018-12-18T06:13:03.566Z,7.07
2018-12-18T06:15:34.401Z,11.90
2018-12-18T06:18:05.088Z,8.70
2018-12-18T06:20:35.646Z,6.40
2018-12-18T06:23:06.203Z,5.60
2018-12-18T06:25:36.970Z,7.10
2018-12-18T06:28:07.264Z,5.30
2018-12-18T06:30:37.924Z,9.60
2018-12-18T06:33:08.462Z,11.40
2018-12-18T06:35:39.434Z,11.40
2018-12-18T06:38:09.760Z,10.47
2018-12-18T06:40:40.187Z,11.57
2018-12-18T06:43:10.740Z,10.73
2018-12-18T06:45:42.421Z,11.97
2018-12-18T06:48:12.902Z,14.80
2018-12-18T06:50:43.692Z,10.80
2018-12-18T06:53:14.291Z,11.63
2018-12-18T06:55:45.914Z,9.53
2018-12-18T06:58:16.385Z,6.17
2018-12-18T07:00:46.860Z,12.80
2018-12-18T07:03:17.195Z,11.33
2018-12-18T07:05:47.475Z,16.17
2018-12-18T07:08:17.750Z,18.40
2018-12-18T07:10:48.001Z,15.20
2018-12-18T07:13:18.125Z,6.30
2018-12-18T07:15:49.201Z,9.80
2018-12-18T07:18:19.783Z,5.23
2018-12-18T07:20:50.623Z,10.30
2018-12-18T07:23:21.155Z,5.00
2018-12-18T07:25:53.570Z,6.03
2018-12-18T07:28:23.999Z,10.10
2018-12-18T07:30:54.746Z,8.17
2018-12-18T07:33:25.304Z,9.30
2018-12-18T07:35:56.107Z,8.87
2018-12-18T07:38:26.474Z,7.03
2018-12-18T07:40:57.112Z,7.60
2018-12-18T07:43:27.534Z,14.10
2018-12-18T07:45:58.583Z,9.83
2018-12-18T07:48:28.844Z,6.20
2018-12-18T07:50:59.440Z,2.50
2018-12-18T07:53:29.652Z,3.97
2018-12-18T07:56:00.436Z,4.90
2018-12-18T07:58:30.903Z,4.53
2018-12-18T08:01:01.419Z,3.63
2018-12-18T08:03:32.245Z,3.83
2018-12-18T08:06:03.063Z,5.60
2018-12-18T08:08:33.404Z,4.73
2018-12-18T08:11:03.803Z,2.80
2018-12-18T08:13:34.296Z,3.90
2018-12-18T08:16:05.695Z,2.90
2018-12-18T08:18:35.597Z,2.07
2018-12-18T08:21:06.483Z,4.70
2018-12-18T08:23:37.014Z,5.73
2018-12-18T08:26:07.243Z,2.37
2018-12-18T08:28:37.618Z,3.10
2018-12-18T08:31:07.921Z,5.57
2018-12-18T08:33:38.536Z,3.40
2018-12-18T08:36:09.653Z,4.70
2018-12-18T08:38:40.128Z,1.80
2018-12-18T08:41:10.821Z,6.80
2018-12-18T08:43:41.479Z,4.27
2018-12-18T08:46:12.064Z,7.40
2018-12-18T08:48:42.474Z,7.00
2018-12-18T08:51:13.228Z,5.13
2018-12-18T08:53:43.592Z,3.00
2018-12-18T08:56:14.592Z,3.70
2018-12-18T08:58:45.035Z,2.97
2018-12-18T09:01:15.443Z,3.80
2018-12-18T09:03:45.873Z,1.57
2018-12-18T09:06:17.532Z,2.10
2018-12-18T09:08:48.031Z,4.10
2018-12-18T09:11:18.700Z,2.20
2018-12-18T09:13:49.247Z,1.90
2018-12-18T09:16:25.217Z,1.50
2018-12-18T09:18:55.724Z,2.90
2018-12-18T09:21:26.206Z,4.00
2018-12-18T09:23:56.659Z,3.90
2018-12-18T09:26:27.618Z,1.40
2018-12-18T09:28:57.882Z,2.23
2018-12-18T09:31:28.277Z,2.07
2018-12-18T09:33:58.667Z,3.00
2018-12-18T09:36:29.430Z,5.63
2018-12-18T09:39:04.924Z,3.43
2018-12-18T09:41:40.544Z,6.03
2018-12-18T09:44:15.129Z,6.07
2018-12-18T09:46:46.137Z,11.50
2018-12-18T09:49:16.645Z,6.50
2018-12-18T09:51:47.303Z,8.33
2018-12-18T09:54:17.391Z,4.93
2018-12-18T09:56:52.036Z,4.43
2018-12-18T09:59:22.795Z,2.33
2018-12-18T10:01:53.344Z,5.57
2018-12-18T10:04:23.760Z,2.47
2018-12-18T10:06:55.092Z,3.23
2018-12-18T10:09:25.520Z,2.70
2018-12-18T10:11:55.882Z,2.73
2018-12-18T10:14:26.168Z,2.97
2018-12-18T10:16:57.937Z,2.07
2018-12-18T10:19:28.574Z,2.77
2018-12-18T10:21:59.506Z,0.87
2018-12-18T10:24:29.939Z,1.93
2018-12-18T10:27:01.263Z,1.43
2018-12-18T10:29:31.749Z,3.87
2018-12-18T10:32:02.125Z,5.20
2018-12-18T10:34:32.529Z,6.70
2018-12-18T10:37:03.903Z,9.60
2018-12-18T10:39:34.628Z,1.30
2018-12-18T10:42:05.171Z,3.50
2018-12-18T10:44:35.320Z,2.07
2018-12-18T10:47:06.840Z,4.67
2018-12-18T10:49:37.094Z,3.50
2018-12-18T10:52:07.586Z,3.77
2018-12-18T10:54:37.920Z,1.77
2018-12-18T10:57:09.515Z,1.47
2018-12-18T10:59:39.931Z,1.57
2018-12-18T11:02:11.174Z,5.10
2018-12-18T11:04:41.528Z,9.10
2018-12-18T11:07:12.831Z,6.33
2018-12-18T11:09:43.327Z,4.10
2018-12-18T11:12:16.404Z,3.60
2018-12-18T11:14:46.801Z,4.63
2018-12-18T11:17:17.059Z,3.63
2018-12-18T11:19:47.608Z,2.20
2018-12-18T11:22:18.079Z,2.93
2018-12-18T11:24:48.679Z,3.60
2018-12-18T11:27:19.597Z,4.90
2018-12-18T11:29:49.997Z,6.17
2018-12-18T11:32:20.552Z,4.03
2018-12-18T11:34:50.898Z,4.97
2018-12-18T11:37:22.080Z,3.67
2018-12-18T11:39:52.549Z,3.93
2018-12-18T11:42:22.889Z,4.07
2018-12-18T11:44:53.320Z,4.87
2018-12-18T11:47:24.259Z,4.23
2018-12-18T11:49:54.755Z,6.73
2018-12-18T11:52:25.360Z,4.50
2018-12-18T11:54:55.714Z,7.60
2018-12-18T11:57:26.501Z,6.77
2018-12-18T11:59:57.184Z,9.40
2018-12-18T12:02:27.607Z,6.30
2018-12-18T12:04:58.132Z,3.90
2018-12-18T12:07:28.843Z,5.40
2018-12-18T12:09:59.079Z,3.97
2018-12-18T12:12:29.699Z,3.60
2018-12-18T12:15:00.541Z,6.23
2018-12-18T12:17:31.615Z,7.10
2018-12-18T12:20:02.138Z,4.10
2018-12-18T12:22:32.483Z,5.80
2018-12-18T12:25:03.164Z,5.60
2018-12-18T12:27:36.573Z,7.47
2018-12-18T12:30:08.441Z,7.27
2018-12-18T12:32:38.869Z,6.20
2018-12-18T12:35:09.500Z,6.90
2018-12-18T12:37:40.733Z,4.60
2018-12-18T12:40:11.364Z,3.93
2018-12-18T12:42:41.866Z,5.50
2018-12-18T12:45:12.316Z,10.90
2018-12-18T12:47:45.876Z,6.47
2018-12-18T12:50:16.362Z,5.00
2018-12-18T12:52:46.772Z,6.97
2018-12-18T12:55:17.097Z,6.47
2018-12-18T12:57:47.825Z,8.00
2018-12-18T13:00:17.956Z,4.80
2018-12-18T13:02:48.376Z,7.07
2018-12-18T13:05:18.908Z,7.57
2018-12-18T13:07:49.444Z,10.23
2018-12-18T13:10:19.974Z,4.83
2018-12-18T13:12:50.319Z,5.40
2018-12-18T13:15:20.923Z,4.97
2018-12-18T13:17:52.184Z,6.83
2018-12-18T13:20:22.595Z,4.53
2018-12-18T13:22:53.373Z,5.70
2018-12-18T13:25:23.828Z,7.90
2018-12-18T13:27:54.795Z,6.90
2018-12-18T13:30:25.158Z,4.13
2018-12-18T13:32:55.538Z,5.80
2018-12-18T13:35:25.987Z,8.40
2018-12-18T13:37:56.703Z,10.63
2018-12-18T13:40:27.361Z,11.67
2018-12-18T13:42:57.971Z,11.30
2018-12-18T13:45:28.513Z,7.20
2018-12-18T13:47:59.896Z,10.60
2018-12-18T13:50:30.491Z,11.80
2018-12-18T13:53:00.822Z,9.70
2018-12-18T13:55:36.602Z,4.60
2018-12-18T13:58:04.907Z,3.60
2018-12-18T14:00:35.469Z,4.50
2018-12-18T14:03:05.982Z,4.47
2018-12-18T14:05:36.636Z,7.77
2018-12-18T14:08:07.938Z,7.20
2018-12-18T14:10:38.684Z,6.60
2018-12-18T14:13:08.847Z,10.87
2018-12-18T14:15:39.228Z,5.27
2018-12-18T14:18:09.977Z,3.13
2018-12-18T14:20:40.332Z,5.30
2018-12-18T14:23:11.182Z,4.20
2018-12-18T14:25:41.751Z,6.83
2018-12-18T14:28:12.229Z,7.50
2018-12-18T14:30:42.680Z,9.67
2018-12-18T14:33:13.098Z,7.93
2018-12-18T14:35:43.501Z,6.10
2018-12-18T14:38:14.295Z,8.90
2018-12-18T14:40:44.846Z,13.23
2018-12-18T14:43:15.572Z,10.53
2018-12-18T14:45:46.200Z,14.40
2018-12-18T14:48:17.761Z,9.30
2018-12-18T14:50:48.513Z,6.57
2018-12-18T14:53:19.020Z,8.70
2018-12-18T14:55:49.744Z,12.73
2018-12-18T14:58:20.625Z,14.40
2018-12-18T15:00:51.058Z,16.57
2018-12-18T15:03:21.448Z,9.17
2018-12-18T15:05:51.842Z,89.63
2018-12-18T15:08:23.095Z,11.10
2018-12-18T15:10:53.440Z,15.53
2018-12-18T15:13:23.889Z,14.33
2018-12-18T15:15:53.968Z,20.70
2018-12-18T15:18:25.266Z,18.83
2018-12-18T15:20:55.752Z,19.17
2018-12-18T15:23:26.495Z,19.23
2018-12-18T15:25:57.049Z,12.87
2018-12-18T15:28:28.933Z,8.67
2018-12-18T15:30:59.595Z,16.30
2018-12-18T15:33:30.028Z,18.60
2018-12-18T15:36:00.612Z,11.70
2018-12-18T15:38:31.391Z,13.33
2018-12-18T15:41:01.779Z,11.90
2018-12-18T15:43:32.201Z,17.80
2018-12-18T15:46:02.689Z,15.43
2018-12-18T15:48:33.116Z,14.17
2018-12-18T15:51:03.829Z,17.07
2018-12-18T15:53:34.257Z,30.63
2018-12-18T15:56:04.554Z,28.43
2018-12-18T15:58:35.186Z,26.00
2018-12-18T16:01:05.597Z,16.00
2018-12-18T16:03:36.231Z,13.07
2018-12-18T16:06:06.670Z,16.77
2018-12-18T16:08:37.731Z,22.33
2018-12-18T16:11:08.372Z,19.30
2018-12-18T16:13:39.004Z,23.80
2018-12-18T16:16:09.831Z,15.60
2018-12-18T16:18:40.478Z,13.90
2018-12-18T16:21:11.110Z,18.97
2018-12-18T16:23:41.862Z,19.13
2018-12-18T16:26:12.513Z,19.10
2018-12-18T16:28:43.747Z,12.97
2018-12-18T16:31:14.097Z,24.40
2018-12-18T16:33:44.179Z,28.93
2018-12-18T16:36:14.490Z,13.57
2018-12-18T16:38:46.121Z,13.73
2018-12-18T16:41:16.543Z,17.10
2018-12-18T16:43:47.049Z,22.97
2018-12-18T16:46:17.315Z,21.40
2018-12-18T16:48:47.909Z,30.03
2018-12-18T16:51:18.751Z,21.47
2018-12-18T16:53:49.294Z,36.67
2018-12-18T16:56:19.926Z,19.73
2018-12-18T16:58:50.685Z,22.03
2018-12-18T17:01:21.377Z,21.77
2018-12-18T17:03:52.031Z,20.63
2018-12-18T17:06:22.677Z,29.47
2018-12-18T17:08:53.882Z,31.90
2018-12-18T17:11:24.512Z,29.73
2018-12-18T17:13:54.741Z,35.90
2018-12-18T17:16:25.184Z,23.20
2018-12-18T17:18:55.800Z,20.17
2018-12-18T17:21:26.557Z,25.90
2018-12-18T17:23:57.072Z,27.53
2018-12-18T17:26:27.600Z,18.13
2018-12-18T17:28:58.456Z,10.60
2018-12-18T17:31:28.860Z,7.90
2018-12-18T17:33:59.507Z,11.40
2018-12-18T17:36:29.954Z,9.50
2018-12-18T17:39:01.460Z,6.57
2018-12-18T17:41:31.831Z,8.97
2018-12-18T17:44:02.101Z,6.23
2018-12-18T17:46:32.551Z,7.80
2018-12-18T17:49:03.202Z,9.43
2018-12-18T17:51:33.592Z,11.83
2018-12-18T17:54:04.238Z,25.07
2018-12-18T17:56:34.792Z,11.37
2018-12-18T17:59:05.822Z,5.20
2018-12-18T18:01:36.318Z,6.57
2018-12-18T18:04:06.860Z,5.27
2018-12-18T18:06:37.586Z,7.20
2018-12-18T18:09:10.056Z,7.77
2018-12-18T18:11:40.381Z,15.23
2018-12-18T18:14:11.097Z,4.60
2018-12-18T18:16:41.649Z,9.80
2018-12-18T18:19:12.292Z,12.87
2018-12-18T18:21:42.819Z,6.67
2018-12-18T18:24:13.067Z,7.70
2018-12-18T18:26:43.196Z,5.40
2018-12-18T18:29:13.490Z,8.10
2018-12-18T18:35:01.720Z,11.33
2018-12-18T18:37:32.139Z,11.73
2018-12-18T18:40:02.253Z,5.47
2018-12-18T18:42:32.601Z,8.80
2018-12-18T18:45:02.917Z,19.10
2018-12-18T18:47:33.357Z,17.30
2018-12-18T18:50:04.177Z,9.10
2018-12-18T18:52:35.725Z,6.90
2018-12-18T18:55:06.575Z,4.53
2018-12-18T18:57:36.907Z,4.83
2018-12-18T19:00:08.368Z,3.43
2018-12-18T19:02:39.882Z,3.10
2018-12-18T19:05:10.191Z,2.83
2018-12-18T19:07:40.948Z,7.20
2018-12-18T19:10:11.802Z,9.20
2018-12-18T19:12:43.025Z,6.10
2018-12-18T19:15:13.695Z,4.13
2018-12-18T19:17:43.963Z,4.57
2018-12-18T19:20:14.238Z,5.87
2018-12-18T19:22:45.369Z,5.63
2018-12-18T19:25:16.101Z,6.33
2018-12-18T19:27:46.462Z,4.13
2018-12-18T19:30:16.939Z,5.53
2018-12-18T19:32:47.881Z,6.10
2018-12-18T19:35:18.190Z,4.60
2018-12-18T19:37:48.542Z,4.70
2018-12-18T19:40:19.026Z,5.43
2018-12-18T19:42:49.984Z,5.37
2018-12-18T19:45:20.626Z,10.67
2018-12-18T19:47:51.073Z,6.90
2018-12-18T19:50:21.609Z,3.00
2018-12-18T19:52:52.509Z,2.63
2018-12-18T19:55:23.038Z,4.07
2018-12-18T19:57:53.674Z,3.40
2018-12-18T20:00:24.238Z,2.27
2018-12-18T20:02:55.443Z,2.53
2018-12-18T20:05:25.996Z,3.47
2018-12-18T20:07:56.551Z,3.23
2018-12-18T20:10:27.167Z,7.97
2018-12-18T20:13:00.659Z,4.73
2018-12-18T20:15:30.903Z,3.87
2018-12-18T20:18:01.118Z,2.70
2018-12-18T20:20:31.724Z,4.67
2018-12-18T20:23:03.340Z,4.57
2018-12-18T20:25:33.770Z,4.13
2018-12-18T20:28:04.220Z,2.87
2018-12-18T20:30:34.515Z,4.67
2018-12-18T20:33:06.016Z,1.90
2018-12-18T20:35:36.216Z,5.67
2018-12-18T20:38:06.525Z,5.30
2018-12-18T20:40:37.048Z,4.70
2018-12-18T20:43:07.474Z,5.80
2018-12-18T20:45:38.235Z,4.50
2018-12-18T20:48:08.856Z,3.77
2018-12-18T20:50:39.300Z,5.07
2018-12-18T20:53:10.208Z,5.27
2018-12-18T20:55:40.799Z,3.70
2018-12-18T20:58:11.280Z,4.97
2018-12-18T21:00:41.717Z,4.30
2018-12-18T21:03:12.717Z,4.97
2018-12-18T21:05:43.249Z,3.40
2018-12-18T21:08:13.684Z,3.50
2018-12-18T21:10:44.080Z,4.93
2018-12-18T21:13:20.137Z,3.93
2018-12-18T21:15:50.615Z,2.33
2018-12-18T21:18:20.792Z,2.70
2018-12-18T21:20:51.115Z,2.53
2018-12-18T21:23:22.515Z,2.03
2018-12-18T21:25:53.672Z,2.57
2018-12-18T21:28:24.054Z,2.37
2018-12-18T21:30:54.606Z,2.30
2018-12-18T21:33:25.144Z,1.87
2018-12-18T21:35:55.699Z,1.97
2018-12-18T21:38:30.209Z,2.30
2018-12-18T21:40:58.606Z,2.23
2018-12-18T21:43:30.216Z,2.07
2018-12-18T21:46:00.846Z,1.63
2018-12-18T21:48:31.419Z,2.37
2018-12-18T21:51:01.809Z,3.43
2018-12-18T21:53:33.138Z,2.43
2018-12-18T21:56:03.679Z,2.43
2018-12-18T21:58:34.186Z,2.27
2018-12-18T22:01:04.611Z,2.50
2018-12-18T22:03:35.364Z,2.70
2018-12-18T22:06:05.671Z,2.47
2018-12-18T22:08:36.912Z,3.03
2018-12-18T22:11:07.647Z,3.33
2018-12-18T22:13:39.132Z,2.87
2018-12-18T22:16:09.210Z,3.53
2018-12-18T22:18:39.850Z,2.70
2018-12-18T22:21:10.398Z,2.47
2018-12-18T22:23:41.216Z,2.30
2018-12-18T22:26:11.452Z,3.83
2018-12-18T22:28:42.003Z,3.10
2018-12-18T22:31:12.397Z,2.60
2018-12-18T22:33:43.228Z,3.73
2018-12-18T22:36:13.592Z,3.13
2018-12-18T22:38:43.921Z,3.80
2018-12-18T22:41:14.572Z,4.33
2018-12-18T22:43:45.873Z,3.70
2018-12-18T22:46:16.255Z,3.13
2018-12-18T22:48:46.568Z,3.27
2018-12-18T22:51:17.010Z,2.93
2018-12-18T22:53:47.783Z,3.80
2018-12-18T22:56:18.107Z,4.87
2018-12-18T22:58:48.529Z,3.27
2018-12-18T23:01:51.797Z,3.10
2018-12-18T23:04:22.394Z,6.00
2018-12-18T23:06:52.558Z,3.20
2018-12-18T23:09:22.875Z,4.23
2018-12-18T23:11:53.423Z,4.27
2018-12-18T23:14:23.852Z,3.93
2018-12-18T23:16:54.228Z,3.80
2018-12-18T23:19:24.845Z,3.83
2018-12-18T23:21:56.162Z,3.07
2018-12-18T23:24:26.559Z,5.50
2018-12-18T23:26:57.378Z,2.63
2018-12-18T23:29:27.877Z,2.87
2018-12-18T23:31:58.619Z,3.70
2018-12-18T23:34:33.012Z,3.10
2018-12-18T23:37:00.994Z,4.20
2018-12-18T23:39:31.605Z,3.47
2018-12-18T23:42:02.466Z,3.43
2018-12-18T23:44:32.817Z,2.70
2018-12-18T23:47:03.154Z,3.97
2018-12-18T23:49:33.525Z,4.40
2018-12-18T23:52:05.125Z,3.23
2018-12-18T23:54:35.801Z,3.20
2018-12-18T23:57:06.322Z,5.60
2018-12-18T23:59:36.950Z,6.17
